Time;durP1;ratioP1;P1;durP2;ratioP2;P2;SDS_P1;SDS_P2;PMS_P1;PMS_P2;Temp;Humidity;BMP_temperature;BMP_pressure;BME280_temperature;BME280_humidity;BME280_pressure;Samples;Min_cycle;Max_cycle;Signal;HPM_P1;HPM_P2
2022/03/26 00:00:09;;;;;;;13.80;7.97;;;;;;;-1.44;64.43;96656.88;1768389;81;21058;-66
2022/03/26 00:02:37;;;;;;;15.87;8.53;;;;;;;-1.54;65.27;96660.38;1768058;81;21026;-66
2022/03/26 00:05:05;;;;;;;15.87;9.57;;;;;;;-1.60;64.72;96658.79;1768403;81;21425;-66
2022/03/26 00:07:31;;;;;;;19.30;10.17;;;;;;;-1.58;65.41;96657.58;1768218;81;21062;-66
2022/03/26 00:09:58;;;;;;;18.33;8.90;;;;;;;-1.49;64.58;96663.14;1768282;81;21087;-66
2022/03/26 00:12:25;;;;;;;15.40;9.10;;;;;;;-1.40;64.39;96657.09;1768158;81;21113;-66
2022/03/26 00:14:52;;;;;;;14.97;9.30;;;;;;;-1.32;64.17;96659.61;1768300;81;21053;-66
2022/03/26 00:17:19;;;;;;;16.33;9.17;;;;;;;-1.28;64.03;96656.77;1768279;81;20967;-66
2022/03/26 00:19:46;;;;;;;16.17;10.00;;;;;;;-1.24;63.58;96661.66;1768335;81;21030;-66
2022/03/26 00:22:12;;;;;;;16.37;9.00;;;;;;;-1.39;64.05;96664.03;1768167;81;21475;-66
2022/03/26 00:24:39;;;;;;;19.80;9.27;;;;;;;-1.42;64.18;96667.78;1768264;81;21117;-66
2022/03/26 00:27:06;;;;;;;16.07;9.43;;;;;;;-1.39;64.12;96670.92;1768502;81;21476;-66
2022/03/26 00:29:32;;;;;;;17.97;9.53;;;;;;;-1.39;63.94;96670.50;1768452;81;21480;-66
2022/03/26 00:31:59;;;;;;;12.57;6.63;;;;;;;-1.42;63.59;96664.31;1768051;81;21022;-66
2022/03/26 00:34:25;;;;;;;16.57;9.37;;;;;;;-1.49;64.22;96676.50;1768497;81;21492;-66
2022/03/26 00:36:52;;;;;;;17.10;8.60;;;;;;;-1.62;64.34;96675.95;1768369;81;21038;-66
2022/03/26 00:39:18;;;;;;;20.30;9.30;;;;;;;-1.65;64.97;96669.34;1768496;81;20990;-66
2022/03/26 00:41:45;;;;;;;13.97;8.37;;;;;;;-1.66;64.50;96673.14;1768254;81;21540;-66
2022/03/26 00:44:11;;;;;;;18.37;9.17;;;;;;;-1.71;64.61;96669.08;1768358;81;20979;-66
2022/03/26 00:46:38;;;;;;;17.77;9.37;;;;;;;-1.77;65.14;96667.48;1768166;81;21481;-66
2022/03/26 00:49:05;;;;;;;17.27;9.90;;;;;;;-1.75;64.58;96664.16;1768452;81;21071;-66
2022/03/26 00:51:32;;;;;;;15.37;9.03;;;;;;;-1.73;64.30;96664.23;1768317;81;21090;-66
2022/03/26 00:53:58;;;;;;;16.57;9.47;;;;;;;-1.75;64.92;96661.98;1768663;81;20990;-66
2022/03/26 00:56:24;;;;;;;13.07;7.63;;;;;;;-1.69;64.68;96661.36;1768607;81;20983;-66
2022/03/26 00:58:51;;;;;;;16.87;8.43;;;;;;;-1.81;65.35;96675.52;1768599;81;21527;-66
2022/03/26 01:01:18;;;;;;;17.93;8.97;;;;;;;-1.95;65.28;96672.70;1768449;81;21026;-66
2022/03/26 01:03:44;;;;;;;17.97;8.93;;;;;;;-1.91;65.19;96673.74;1768608;81;20975;-66
2022/03/26 01:06:11;;;;;;;15.37;9.77;;;;;;;-1.90;65.50;96667.33;1768562;81;21034;-66
2022/03/26 01:08:38;;;;;;;19.93;9.03;;;;;;;-1.88;65.01;96669.58;1768494;81;21053;-66
2022/03/26 01:11:05;;;;;;;17.40;9.60;;;;;;;-1.83;65.44;96671.09;1768713;81;21050;-66
2022/03/26 01:13:34;;;;;;;15.87;9.30;;;;;;;-1.77;64.91;96668.36;1768628;81;21456;-66
2022/03/26 01:16:02;;;;;;;15.00;7.73;;;;;;;-1.72;64.53;96670.29;1768465;81;21033;-66
2022/03/26 01:18:28;;;;;;;14.53;8.67;;;;;;;-1.77;64.92;96663.19;1768430;81;21010;-66
2022/03/26 01:20:55;;;;;;;12.30;8.07;;;;;;;-1.81;65.10;96660.42;1768246;81;20999;-66
2022/03/26 01:23:22;;;;;;;10.70;7.10;;;;;;;-1.80;64.75;96658.30;1768643;81;20990;-66
2022/03/26 01:25:48;;;;;;;16.53;8.73;;;;;;;-1.84;65.08;96654.70;1768222;81;21061;-66
2022/03/26 01:28:15;;;;;;;11.10;6.23;;;;;;;-1.87;65.09;96656.23;1768499;81;21061;-66
2022/03/26 01:30:42;;;;;;;14.63;7.80;;;;;;;-2.02;65.81;96648.65;1768715;81;20962;-66
2022/03/26 01:33:09;;;;;;;17.10;9.10;;;;;;;-2.09;66.47;96645.30;1768321;81;20970;-66
2022/03/26 01:35:35;;;;;;;14.90;9.37;;;;;;;-2.08;65.72;96650.97;1768237;81;21098;-66
2022/03/26 01:38:04;;;;;;;15.50;8.33;;;;;;;-2.05;65.27;96643.34;1768710;81;21054;-66
2022/03/26 01:40:32;;;;;;;12.87;8.50;;;;;;;-1.99;65.45;96653.95;1768615;81;21027;-66
2022/03/26 01:42:59;;;;;;;13.83;8.10;;;;;;;-2.01;65.73;96646.56;1768655;81;21033;-66
2022/03/26 01:45:28;;;;;;;14.77;8.40;;;;;;;-2.01;65.68;96647.44;1768365;81;21061;-66
2022/03/26 01:47:56;;;;;;;25.87;12.90;;;;;;;-2.11;67.28;96648.24;1768850;81;21495;-66
2022/03/26 01:50:25;;;;;;;59.73;24.57;;;;;;;-2.22;66.72;96652.88;1768497;81;21014;-66
2022/03/26 01:52:52;;;;;;;18.77;9.37;;;;;;;-2.24;66.55;96648.95;1768430;81;20990;-66
2022/03/26 01:55:20;;;;;;;15.63;7.73;;;;;;;-2.20;66.51;96656.43;1768437;81;20974;-66
2022/03/26 01:57:47;;;;;;;14.33;8.07;;;;;;;-2.18;66.37;96653.52;1768810;81;20978;-66
2022/03/26 02:00:15;;;;;;;13.70;8.10;;;;;;;-2.15;66.23;96651.07;1768306;81;21141;-66
2022/03/26 02:02:45;;;;;;;14.03;7.20;;;;;;;-2.12;66.29;96647.74;1768368;81;21479;-66
2022/03/26 02:05:16;;;;;;;10.67;7.30;;;;;;;-2.15;66.22;96647.61;1768299;81;21034;-66
2022/03/26 02:07:45;;;;;;;12.67;7.57;;;;;;;-2.26;67.73;96649.28;1768331;81;21555;-66
2022/03/26 02:10:14;;;;;;;12.57;8.00;;;;;;;-2.28;67.50;96645.73;1768797;81;21021;-66
2022/03/26 02:12:42;;;;;;;14.13;8.23;;;;;;;-2.21;67.01;96647.80;1768553;81;21052;-66
2022/03/26 02:15:10;;;;;;;17.23;8.87;;;;;;;-2.13;66.69;96652.45;1768442;81;21006;-66
2022/03/26 02:17:37;;;;;;;17.63;9.33;;;;;;;-2.08;67.83;96647.97;1768690;81;21025;-66
2022/03/26 02:20:11;;;;;;;19.27;10.40;;;;;;;-2.02;67.62;96648.23;1768325;81;21118;-66
2022/03/26 02:22:38;;;;;;;13.43;8.10;;;;;;;-1.96;67.23;96652.42;1769206;81;21050;-66
2022/03/26 02:25:09;;;;;;;12.67;7.90;;;;;;;-1.94;66.76;96649.91;1768250;81;21097;-66
2022/03/26 02:27:36;;;;;;;15.40;8.27;;;;;;;-1.93;66.32;96654.26;1768490;81;21038;-66
2022/03/26 02:30:05;;;;;;;17.07;7.93;;;;;;;-1.98;66.22;96651.45;1768336;81;21129;-66
2022/03/26 02:32:32;;;;;;;11.57;6.33;;;;;;;-1.92;66.10;96659.02;1768503;81;21002;-66
2022/03/26 02:34:59;;;;;;;10.23;5.50;;;;;;;-2.03;66.55;96651.65;1767818;81;21062;-66
2022/03/26 02:37:26;;;;;;;11.73;7.20;;;;;;;-2.10;66.69;96657.34;1768631;81;21048;-65
2022/03/26 02:39:53;;;;;;;11.77;7.27;;;;;;;-2.23;67.68;96657.17;1768202;81;21010;-66
2022/03/26 02:42:19;;;;;;;13.00;6.93;;;;;;;-2.31;67.10;96652.05;1768454;81;21006;-66
2022/03/26 02:44:46;;;;;;;13.57;7.83;;;;;;;-2.31;66.97;96652.47;1768545;81;21021;-66
2022/03/26 02:47:13;;;;;;;12.93;7.40;;;;;;;-2.21;67.36;96655.97;1768308;81;21018;-66
2022/03/26 02:49:40;;;;;;;11.77;7.33;;;;;;;-2.12;66.92;96653.80;1768392;81;20986;-66
2022/03/26 02:52:08;;;;;;;11.43;7.10;;;;;;;-2.07;66.33;96648.84;1768571;81;21492;-66
2022/03/26 02:54:35;;;;;;;12.37;7.20;;;;;;;-2.04;66.25;96656.73;1768526;81;21018;-66
2022/03/26 02:57:03;;;;;;;15.00;7.17;;;;;;;-2.01;65.99;96660.78;1768254;81;21049;-66
2022/03/26 02:59:30;;;;;;;10.53;6.53;;;;;;;-1.94;66.01;96660.27;1768585;81;21029;-66
2022/03/26 03:01:57;;;;;;;14.43;7.27;;;;;;;-1.91;65.42;96654.34;1768553;81;21050;-66
2022/03/26 03:04:24;;;;;;;8.43;5.60;;;;;;;-1.96;65.74;96658.00;1768413;81;21500;-66
2022/03/26 03:06:51;;;;;;;18.10;9.90;;;;;;;-2.01;65.67;96657.78;1756606;81;21503;-66
2022/03/26 03:09:18;;;;;;;11.73;7.50;;;;;;;-2.25;67.63;96648.45;1756481;82;21046;-66
2022/03/26 03:11:45;;;;;;;11.77;6.40;;;;;;;-2.31;66.37;96649.88;1756427;82;21063;-66
2022/03/26 03:14:12;;;;;;;10.30;6.30;;;;;;;-2.27;66.41;96646.61;1756007;82;21065;-66
2022/03/26 03:16:39;;;;;;;12.67;6.67;;;;;;;-2.20;66.17;96648.27;1756185;82;21046;-66
2022/03/26 03:19:06;;;;;;;14.57;7.17;;;;;;;-2.20;65.93;96639.63;1755912;82;21074;-66
2022/03/26 03:21:32;;;;;;;11.27;6.97;;;;;;;-2.19;66.09;96647.47;1756525;81;20970;-66
2022/03/26 03:23:59;;;;;;;11.73;6.40;;;;;;;-2.26;66.38;96654.45;1755937;82;21126;-66
2022/03/26 03:26:26;;;;;;;11.70;6.50;;;;;;;-2.26;66.11;96651.86;1756448;82;20939;-66
2022/03/26 03:28:53;;;;;;;10.67;6.03;;;;;;;-2.29;66.66;96655.61;1756295;81;21006;-66
2022/03/26 03:31:20;;;;;;;10.30;5.77;;;;;;;-2.36;66.97;96657.41;1756199;82;20998;-66
2022/03/26 03:33:46;;;;;;;9.93;6.33;;;;;;;-2.41;66.73;96650.72;1756227;82;20991;-65
2022/03/26 03:36:13;;;;;;;16.23;9.37;;;;;;;-2.44;66.73;96644.12;1756372;82;21055;-66
2022/03/26 03:38:40;;;;;;;8.67;5.77;;;;;;;-2.57;67.45;96646.94;1755885;82;21110;-66
2022/03/26 03:41:08;;;;;;;9.87;5.80;;;;;;;-2.55;67.29;96643.11;1756266;82;21006;-65
2022/03/26 03:43:34;;;;;;;11.50;7.50;;;;;;;-2.49;67.04;96646.02;1756400;82;21512;-66
2022/03/26 03:46:01;;;;;;;8.23;5.47;;;;;;;-2.43;66.61;96643.30;1756427;82;21038;-66
2022/03/26 03:48:28;;;;;;;14.07;9.53;;;;;;;-2.42;66.45;96641.59;1756091;82;21046;-66
2022/03/26 03:50:55;;;;;;;27.73;15.83;;;;;;;-2.47;67.55;96649.53;1756580;82;20980;-66
2022/03/26 03:53:21;;;;;;;21.57;12.57;;;;;;;-2.52;67.62;96650.62;1756215;82;21555;-66
2022/03/26 03:55:48;;;;;;;20.87;12.60;;;;;;;-2.52;67.84;96645.84;1756168;82;21087;-66
2022/03/26 03:58:15;;;;;;;24.13;13.33;;;;;;;-2.58;68.40;96640.39;1756444;82;21011;-66
2022/03/26 04:00:41;;;;;;;25.17;12.60;;;;;;;-2.62;68.16;96640.66;1756346;82;20990;-66
2022/03/26 04:03:08;;;;;;;13.93;8.57;;;;;;;-2.61;68.64;96640.72;1755837;82;21560;-66
2022/03/26 04:05:35;;;;;;;9.13;5.80;;;;;;;-2.55;68.21;96634.07;1756122;81;21013;-66
2022/03/26 04:08:02;;;;;;;11.23;5.63;;;;;;;-2.49;67.31;96637.84;1756008;82;21086;-66
2022/03/26 04:10:29;;;;;;;52.20;24.30;;;;;;;-2.51;67.07;96648.92;1756397;82;20979;-66
2022/03/26 04:12:55;;;;;;;19.77;9.77;;;;;;;-2.61;67.46;96638.13;1756007;81;21027;-66
2022/03/26 04:15:22;;;;;;;11.80;6.73;;;;;;;-2.67;67.54;96637.84;1756372;82;21003;-66
2022/03/26 04:17:52;;;;;;;25.23;12.27;;;;;;;-2.64;67.56;96636.70;1756295;82;21025;-66
2022/03/26 04:20:17;;;;;;;23.10;10.03;;;;;;;-2.60;68.69;96642.88;1756111;82;21046;-65
2022/03/26 04:22:44;;;;;;;21.77;11.70;;;;;;;-2.53;68.48;96644.96;1756156;82;21133;-65
2022/03/26 04:25:11;;;;;;;16.40;8.70;;;;;;;-2.45;68.27;96647.50;1756235;82;21093;-65
2022/03/26 04:27:44;;;;;;;11.57;7.03;;;;;;;-2.41;68.02;96652.02;1728925;82;21019;-66
2022/03/26 04:30:12;;;;;;;11.43;6.33;;;;;;;-2.36;67.72;96654.83;1756788;81;21031;-66
2022/03/26 04:32:39;;;;;;;12.83;7.03;;;;;;;-2.40;67.95;96652.89;1756327;82;21049;-66
2022/03/26 04:35:07;;;;;;;13.23;6.50;;;;;;;-2.44;67.49;96656.16;1756341;81;21074;-66
2022/03/26 04:37:34;;;;;;;11.30;6.00;;;;;;;-2.41;67.78;96657.59;1756550;81;20971;-66
2022/03/26 04:40:03;;;;;;;12.37;7.07;;;;;;;-2.40;67.44;96658.94;1756234;82;21034;-66
2022/03/26 04:42:30;;;;;;;10.93;6.30;;;;;;;-2.37;67.46;96654.73;1756511;81;21022;-66
2022/03/26 04:44:56;;;;;;;15.37;7.80;;;;;;;-2.28;67.38;96649.61;1756537;81;20999;-66
2022/03/26 04:47:23;;;;;;;17.93;9.77;;;;;;;-2.12;67.67;96655.50;1756486;82;20999;-66
2022/03/26 04:49:49;;;;;;;12.60;7.23;;;;;;;-2.04;67.48;96657.65;1756182;82;21007;-66
2022/03/26 04:52:16;;;;;;;12.63;6.50;;;;;;;-1.99;67.29;96652.28;1756599;81;20982;-66
2022/03/26 04:54:43;;;;;;;18.73;9.80;;;;;;;-1.85;67.07;96645.14;1756305;81;21061;-66
2022/03/26 04:57:10;;;;;;;110.23;40.13;;;;;;;-1.72;66.96;96650.88;1756647;82;21034;-65
2022/03/26 04:59:36;;;;;;;99.47;39.87;;;;;;;-1.74;66.36;96646.92;1756485;82;21019;-66
2022/03/26 05:02:04;;;;;;;93.70;36.60;;;;;;;-1.73;66.34;96648.71;1756561;81;20990;-65
2022/03/26 05:04:30;;;;;;;55.70;23.70;;;;;;;-1.71;66.10;96648.76;1756471;82;21504;-66
2022/03/26 05:06:57;;;;;;;49.80;21.27;;;;;;;-1.67;66.39;96650.27;1734993;81;21002;-66
2022/03/26 05:09:24;;;;;;;48.53;19.80;;;;;;;-1.60;66.54;96655.32;1768463;81;21049;-66
2022/03/26 05:11:51;;;;;;;36.73;17.93;;;;;;;-1.47;66.80;96652.45;1768529;81;21081;-66
2022/03/26 05:14:18;;;;;;;31.23;16.27;;;;;;;-1.40;67.55;96654.92;1768319;81;21030;-66
2022/03/26 05:16:44;;;;;;;32.00;16.63;;;;;;;-1.41;67.72;96651.84;1768326;81;21019;-66
2022/03/26 05:19:11;;;;;;;32.60;16.13;;;;;;;-1.28;67.88;96657.17;1768362;81;21054;-66
2022/03/26 05:21:37;;;;;;;34.40;16.27;;;;;;;-1.16;67.24;96664.16;1768301;81;21098;-66
2022/03/26 05:24:05;;;;;;;25.83;16.13;;;;;;;-1.06;66.31;96654.67;1768497;81;21011;-66
2022/03/26 05:26:32;;;;;;;31.57;17.40;;;;;;;-0.98;66.12;96658.50;1768515;81;21062;-66
2022/03/26 05:29:00;;;;;;;28.57;15.57;;;;;;;-0.81;65.82;96659.19;1768719;81;20987;-66
2022/03/26 05:31:28;;;;;;;30.53;17.33;;;;;;;-0.68;65.33;96660.59;1768137;81;21508;-66
2022/03/26 05:33:55;;;;;;;30.97;15.87;;;;;;;-0.65;65.91;96662.04;1768271;81;21062;-66
2022/03/26 05:36:22;;;;;;;22.43;10.67;;;;;;;-0.60;66.36;96665.70;1768353;81;21065;-66
2022/03/26 05:38:48;;;;;;;16.10;8.67;;;;;;;-0.59;66.91;96663.58;1768323;81;21042;-65
2022/03/26 05:41:15;;;;;;;35.60;18.73;;;;;;;-0.52;66.63;96662.13;1768359;81;21022;-66
2022/03/26 05:43:42;;;;;;;44.97;22.57;;;;;;;-0.41;66.99;96664.73;1768700;81;21047;-66
2022/03/26 05:46:09;;;;;;;34.57;20.10;;;;;;;-0.23;67.11;96660.70;1768473;81;21006;-66
2022/03/26 05:48:36;;;;;;;26.37;14.97;;;;;;;-0.09;67.95;96666.45;1768134;81;21133;-66
2022/03/26 05:51:02;;;;;;;12.50;7.30;;;;;;;0.05;67.54;96659.20;1768105;81;21539;-65
2022/03/26 05:53:29;;;;;;;32.77;17.50;;;;;;;0.21;67.32;96657.27;1768803;81;20983;-66
2022/03/26 05:55:55;;;;;;;32.77;18.77;;;;;;;0.31;67.16;96653.73;1768266;81;21022;-66
2022/03/26 05:58:22;;;;;;;42.60;21.37;;;;;;;0.48;66.18;96655.25;1768556;81;21500;-66
2022/03/26 06:00:49;;;;;;;37.93;21.43;;;;;;;0.64;63.13;96656.69;1768539;81;21480;-66
2022/03/26 06:03:18;;;;;;;30.43;16.27;;;;;;;0.83;63.21;96650.43;1768395;81;21069;-66
2022/03/26 06:05:46;;;;;;;36.00;20.13;;;;;;;0.99;63.21;96654.48;1768318;81;21528;-66
2022/03/26 06:08:13;;;;;;;33.43;18.33;;;;;;;1.11;63.55;96650.11;1768471;81;21057;-66
2022/03/26 06:10:39;;;;;;;35.00;17.37;;;;;;;1.28;63.43;96653.75;1768667;81;20999;-66
2022/03/26 06:13:06;;;;;;;30.40;17.50;;;;;;;1.51;63.10;96649.75;1768611;81;21045;-66
2022/03/26 06:15:34;;;;;;;28.00;14.67;;;;;;;1.70;62.19;96646.05;1768739;81;21006;-65
2022/03/26 06:18:02;;;;;;;27.50;17.03;;;;;;;1.87;60.86;96647.90;1768535;81;21532;-66
2022/03/26 06:20:30;;;;;;;28.73;17.00;;;;;;;1.98;60.71;96650.41;1768110;81;21030;-66
2022/03/26 06:22:57;;;;;;;31.20;17.43;;;;;;;2.14;60.86;96648.77;1768975;81;21002;-66
2022/03/26 06:25:23;;;;;;;28.37;16.80;;;;;;;2.34;60.63;96647.16;1768541;81;20978;-66
2022/03/26 06:27:50;;;;;;;23.00;15.50;;;;;;;2.52;59.70;96643.83;1768110;81;21037;-66
2022/03/26 06:30:17;;;;;;;27.40;15.07;;;;;;;2.67;59.36;96647.30;1768652;81;21440;-65
2022/03/26 06:32:44;;;;;;;27.57;15.43;;;;;;;2.81;59.39;96640.73;1768532;81;20970;-66
2022/03/26 06:35:10;;;;;;;28.60;15.83;;;;;;;2.96;59.15;96639.41;1768331;81;21495;-66
2022/03/26 06:37:37;;;;;;;24.80;15.40;;;;;;;3.12;58.86;96637.66;1768700;81;21017;-66
2022/03/26 06:40:07;;;;;;;25.93;16.13;;;;;;;3.26;58.46;96636.73;1768061;81;21532;-66
2022/03/26 06:42:33;;;;;;;28.83;18.23;;;;;;;3.41;58.33;96643.66;1768669;81;20986;-66
2022/03/26 06:45:00;;;;;;;90.23;56.53;;;;;;;3.55;57.25;96644.42;1768172;81;21559;-66
2022/03/26 06:47:27;;;;;;;38.63;25.73;;;;;;;3.68;56.55;96647.40;1768690;81;21014;-66
2022/03/26 06:49:55;;;;;;;29.00;17.07;;;;;;;3.84;56.92;96639.52;1768501;81;21050;-66
2022/03/26 06:52:23;;;;;;;27.23;15.43;;;;;;;4.02;56.70;96640.80;1768186;81;21030;-66
2022/03/26 06:54:51;;;;;;;24.50;14.63;;;;;;;4.18;56.51;96648.13;1768349;81;21530;-66
2022/03/26 06:57:18;;;;;;;22.00;13.17;;;;;;;4.37;55.91;96645.95;1768531;81;21006;-66
2022/03/26 06:59:44;;;;;;;22.57;14.90;;;;;;;4.54;55.71;96650.70;1768523;81;21058;-66
2022/03/26 07:02:12;;;;;;;22.47;14.30;;;;;;;4.72;54.91;96641.05;1768452;81;21058;-66
2022/03/26 07:04:38;;;;;;;21.47;13.10;;;;;;;4.93;55.09;96647.57;1767993;81;21018;-66
2022/03/26 07:07:06;;;;;;;19.17;12.27;;;;;;;5.13;54.88;96647.97;1768198;81;21058;-66
2022/03/26 07:09:33;;;;;;;24.30;13.43;;;;;;;5.31;53.31;96646.13;1768059;81;21061;-66
2022/03/26 07:12:00;;;;;;;22.43;13.47;;;;;;;5.51;52.85;96647.37;1768745;81;21012;-66
2022/03/26 07:14:26;;;;;;;22.40;14.07;;;;;;;5.72;52.88;96648.19;1768482;81;21026;-66
2022/03/26 07:16:53;;;;;;;25.17;14.23;;;;;;;5.92;52.51;96644.59;1768553;81;21006;-66
2022/03/26 07:19:20;;;;;;;23.03;14.23;;;;;;;6.13;51.65;96641.90;1768276;81;21018;-66
2022/03/26 07:21:46;;;;;;;21.43;13.13;;;;;;;6.31;48.31;96635.61;1768499;81;21006;-66
2022/03/26 07:24:13;;;;;;;18.93;11.40;;;;;;;6.49;50.69;96645.04;1768641;81;21005;-66
2022/03/26 07:26:39;;;;;;;18.77;10.83;;;;;;;6.69;49.05;96636.58;1768525;81;20975;-66
2022/03/26 07:29:06;;;;;;;16.53;10.87;;;;;;;6.90;49.52;96640.80;1768452;81;21014;-66
2022/03/26 07:31:32;;;;;;;19.43;11.20;;;;;;;7.12;45.85;96638.41;1768499;81;21483;-66
2022/03/26 07:33:59;;;;;;;18.47;10.53;;;;;;;7.32;46.06;96629.02;1768501;81;21459;-66
2022/03/26 07:36:26;;;;;;;14.97;10.00;;;;;;;7.58;45.44;96634.55;1768575;81;21014;-66
2022/03/26 07:38:53;;;;;;;14.07;9.13;;;;;;;7.82;40.90;96634.31;1768353;81;21045;-66
2022/03/26 07:41:21;;;;;;;14.37;9.00;;;;;;;8.09;38.68;96636.71;1768614;81;20979;-66
2022/03/26 07:43:48;;;;;;;15.93;8.33;;;;;;;8.33;38.05;96627.69;1768548;81;21007;-66
2022/03/26 07:46:18;;;;;;;14.50;7.77;;;;;;;8.56;36.56;96624.36;1768495;81;21014;-66
2022/03/26 07:48:43;;;;;;;15.10;8.87;;;;;;;8.79;35.33;96625.80;1767705;81;21121;-66
2022/03/26 07:51:09;;;;;;;16.20;8.90;;;;;;;8.98;36.02;96625.46;1768309;81;21042;-66
2022/03/26 07:53:36;;;;;;;15.00;8.40;;;;;;;9.21;34.41;96621.14;1768265;81;21035;-66
2022/03/26 07:56:03;;;;;;;14.63;9.37;;;;;;;9.42;35.89;96622.08;1768494;81;21009;-66
2022/03/26 07:58:30;;;;;;;13.53;7.80;;;;;;;9.62;34.49;96620.80;1768475;81;21007;-66
2022/03/26 08:00:56;;;;;;;14.83;10.57;;;;;;;9.82;33.30;96606.33;1768686;81;21018;-66
2022/03/26 08:03:24;;;;;;;27.17;15.30;;;;;;;10.03;32.18;96611.63;1768502;81;21015;-66
2022/03/26 08:05:51;;;;;;;24.70;12.10;;;;;;;10.19;32.26;96613.80;1768007;81;21094;-66
2022/03/26 08:08:18;;;;;;;28.37;13.90;;;;;;;10.29;30.76;96599.76;1768454;81;21026;-66
2022/03/26 08:10:44;;;;;;;16.87;10.20;;;;;;;10.43;32.59;96608.95;1768284;81;21069;-66
2022/03/26 08:13:11;;;;;;;14.33;7.00;;;;;;;10.64;32.77;96600.13;1768304;81;21038;-66
2022/03/26 08:15:37;;;;;;;13.70;6.23;;;;;;;10.78;33.68;96606.23;1768438;81;21010;-66
2022/03/26 08:18:05;;;;;;;9.93;6.43;;;;;;;10.96;33.19;96605.31;1768566;81;21475;-68
2022/03/26 08:20:32;;;;;;;11.33;7.03;;;;;;;11.18;33.16;96604.75;1768372;81;21021;-67
2022/03/26 08:22:58;;;;;;;10.87;7.43;;;;;;;11.37;32.55;96604.23;1768325;81;21018;-66
2022/03/26 08:28:14;;;;;;;11.53;7.17;;;;;;;11.79;33.10;96598.66;1768527;81;21012;-66
2022/03/26 08:30:41;;;;;;;14.43;7.57;;;;;;;11.97;30.98;96606.52;1768461;81;21001;-66
2022/03/26 08:33:08;;;;;;;12.37;7.00;;;;;;;12.02;29.98;96606.45;1768195;81;21058;-66
2022/03/26 08:35:43;;;;;;;10.77;7.67;;;;;;;12.12;31.39;96604.20;1768324;81;20983;-66
2022/03/26 08:38:08;;;;;;;10.37;6.73;;;;;;;12.30;30.91;96604.02;1767426;81;21073;-66
2022/03/26 08:40:35;;;;;;;9.17;6.87;;;;;;;12.44;30.83;96601.23;1768239;81;21054;-66
2022/03/26 08:43:04;;;;;;;9.93;7.17;;;;;;;12.59;30.10;96604.17;1768247;81;20998;-66
2022/03/26 08:45:30;;;;;;;11.20;7.03;;;;;;;12.74;29.64;96604.01;1768441;81;21033;-66
2022/03/26 08:47:57;;;;;;;10.13;7.30;;;;;;;12.80;29.31;96604.41;1768409;81;21014;-66
2022/03/26 08:50:24;;;;;;;17.23;7.50;;;;;;;12.86;27.39;96605.66;1768418;81;21006;-66
2022/03/26 08:52:51;;;;;;;15.63;7.47;;;;;;;12.86;28.82;96601.68;1768484;81;21014;-66
2022/03/26 08:55:19;;;;;;;9.60;6.67;;;;;;;12.99;28.88;96601.95;1768351;81;20994;-67
2022/03/26 08:57:46;;;;;;;13.77;6.90;;;;;;;13.11;29.17;96600.07;1768495;81;21049;-67
2022/03/26 09:00:14;;;;;;;15.73;8.63;;;;;;;13.19;29.15;96595.55;1768584;81;20970;-67
2022/03/26 09:02:41;;;;;;;17.13;8.30;;;;;;;13.24;27.99;96598.14;1768377;81;21506;-66
2022/03/26 09:05:09;;;;;;;12.40;7.27;;;;;;;13.27;29.38;96591.05;1768605;81;20993;-66
2022/03/26 09:07:36;;;;;;;16.47;7.47;;;;;;;13.34;28.42;96591.85;1761058;81;21062;-66
2022/03/26 09:10:04;;;;;;;9.93;7.20;;;;;;;13.32;28.94;96588.34;1756363;82;21547;-66
2022/03/26 09:12:31;;;;;;;12.75;6.45;;;;;;;13.36;28.66;96583.44;1756423;82;21062;-67
2022/03/26 09:14:57;;;;;;;13.60;7.30;;;;;;;13.45;29.61;96579.31;1756649;82;20986;-66
2022/03/26 09:17:24;;;;;;;10.73;6.57;;;;;;;13.59;29.90;96574.70;1756251;82;21509;-66
2022/03/26 09:19:51;;;;;;;15.23;7.47;;;;;;;13.72;27.97;96564.78;1756085;82;21042;-67
2022/03/26 09:22:18;;;;;;;14.03;7.67;;;;;;;13.85;27.82;96566.78;1756065;82;21034;-66
2022/03/26 09:24:45;;;;;;;10.08;6.47;;;;;;;13.96;27.94;96567.94;1756165;82;21031;-66
2022/03/26 09:27:12;;;;;;;12.55;8.13;;;;;;;14.09;27.50;96565.52;1756370;82;21030;-67
2022/03/26 09:29:38;;;;;;;11.78;6.90;;;;;;;14.15;28.05;96563.21;1756052;82;21538;-66
2022/03/26 09:32:06;;;;;;;10.23;6.15;;;;;;;14.21;27.18;96557.36;1756106;82;21078;-66
2022/03/26 09:34:33;;;;;;;17.02;9.68;;;;;;;14.46;28.61;96560.45;1756330;81;21015;-66
2022/03/26 09:37:00;;;;;;;12.55;8.68;;;;;;;14.71;25.99;96553.35;1756166;82;21046;-66
2022/03/26 09:39:26;;;;;;;12.98;6.55;;;;;;;14.71;25.53;96556.02;1756508;82;21003;-66
2022/03/26 09:41:54;;;;;;;11.38;6.47;;;;;;;14.83;26.60;96557.10;1756454;81;20999;-66
2022/03/26 09:44:21;;;;;;;9.25;6.30;;;;;;;14.98;26.17;96560.36;1756350;82;21551;-66
2022/03/26 09:46:48;;;;;;;9.65;6.22;;;;;;;14.86;25.51;96558.36;1756045;82;21073;-67
2022/03/26 09:49:15;;;;;;;8.25;5.75;;;;;;;14.95;26.57;96559.98;1756525;81;21027;-66
2022/03/26 09:51:42;;;;;;;11.38;6.83;;;;;;;15.18;26.51;96559.95;1756213;81;21054;-67
2022/03/26 09:54:16;;;;;;;9.68;7.10;;;;;;;15.33;26.44;96549.86;1756565;82;21015;-66
2022/03/26 09:56:43;;;;;;;17.77;6.80;;;;;;;15.58;26.80;96546.19;1756286;82;21002;-67
2022/03/26 09:59:10;;;;;;;10.88;6.45;;;;;;;15.66;25.17;96538.02;1756336;82;21007;-66
2022/03/26 10:01:36;;;;;;;13.58;7.95;;;;;;;15.84;26.14;96535.88;1756211;82;21114;-66
2022/03/26 10:04:16;;;;;;;11.40;7.10;;;;;;;15.89;25.28;96540.16;1756305;82;21070;-66
2022/03/26 10:06:55;;;;;;;9.80;7.15;;;;;;;15.71;25.63;96536.16;1756173;82;21546;-66
2022/03/26 10:09:34;;;;;;;19.65;6.47;;;;;;;15.59;25.26;96539.08;1756472;81;21519;-66
2022/03/26 10:12:08;;;;;;;11.10;6.90;;;;;;;15.63;26.07;96538.56;1756077;82;21105;-66
2022/03/26 10:14:43;;;;;;;9.08;6.30;;;;;;;15.88;26.47;96527.78;1756391;82;21046;-66
2022/03/26 10:17:26;;;;;;;11.57;7.03;;;;;;;15.93;25.61;96524.55;1756434;81;21492;-66
2022/03/26 10:19:56;;;;;;;12.50;7.50;;;;;;;15.92;25.74;96528.57;1756226;81;21511;-66
2022/03/26 10:22:39;;;;;;;6.72;5.80;;;;;;;15.81;25.39;96522.19;1755861;81;21049;-68
2022/03/26 10:25:12;;;;;;;9.43;5.47;;;;;;;16.07;26.45;96528.65;1755330;82;21515;-68
2022/03/26 10:27:48;;;;;;;10.93;5.53;;;;;;;16.40;26.50;96523.80;1755759;82;21541;-67
2022/03/26 10:32:50;;;;;;;11.12;5.55;;;;;;;16.29;25.78;96520.53;1726053;82;20987;-66
2022/03/26 10:35:27;;;;;;;8.25;5.62;;;;;;;16.06;25.87;96523.78;1755706;82;20996;-67
2022/03/26 10:38:00;;;;;;;9.83;5.80;;;;;;;16.25;26.56;96516.64;1756107;82;21013;-66
2022/03/26 10:40:37;;;;;;;9.88;5.67;;;;;;;16.40;27.10;96513.14;1756237;82;21520;-66
2022/03/26 10:43:10;;;;;;;8.43;4.92;;;;;;;16.59;25.93;96512.63;1756374;82;20994;-66
2022/03/26 10:45:52;;;;;;;9.50;4.67;;;;;;;16.29;26.07;96517.00;1756441;82;21018;-66
2022/03/26 10:48:29;;;;;;;7.20;4.65;;;;;;;16.12;26.36;96510.77;1756413;81;21503;-66
2022/03/26 10:51:13;;;;;;;8.35;4.83;;;;;;;16.46;26.70;96504.10;1756307;82;21058;-66
2022/03/26 10:53:49;;;;;;;11.55;5.85;;;;;;;16.80;26.84;96495.19;1756316;82;21055;-66
2022/03/26 10:56:16;;;;;;;8.20;5.12;;;;;;;17.04;26.33;96493.15;1756355;82;21014;-66
2022/03/26 10:58:44;;;;;;;10.78;4.83;;;;;;;17.07;25.67;96482.84;1756239;81;21492;-67
2022/03/26 11:01:12;;;;;;;12.28;4.60;;;;;;;17.03;25.68;96475.84;1755911;82;21089;-66
2022/03/26 11:03:39;;;;;;;8.05;5.15;;;;;;;16.52;25.01;96480.41;1756291;82;21016;-66
2022/03/26 11:06:10;;;;;;;9.18;4.97;;;;;;;16.04;25.56;96485.67;1756068;82;21444;-66
2022/03/26 11:08:38;;;;;;;12.50;4.80;;;;;;;16.17;25.35;96483.56;1765591;81;21002;-67
2022/03/26 11:11:11;;;;;;;7.92;4.80;;;;;;;16.60;25.28;96481.06;1768182;81;21093;-67
2022/03/26 11:13:45;;;;;;;7.72;4.67;;;;;;;16.51;24.75;96474.68;1768372;81;20990;-67
2022/03/26 11:16:41;;;;;;;12.40;4.70;;;;;;;16.89;24.74;96456.28;1767632;81;20998;-67
2022/03/26 11:19:56;;;;;;;13.03;6.00;;;;;;;17.45;25.67;96450.98;1768432;81;21022;-66
2022/03/26 11:22:45;;;;;;;8.55;5.33;;;;;;;18.02;24.71;96447.81;1768323;81;20994;-67
2022/03/26 11:25:41;;;;;;;7.97;4.85;;;;;;;18.42;24.01;96449.53;1755742;81;20998;-66
2022/03/26 11:28:40;;;;;;;7.75;5.25;;;;;;;18.54;23.66;96451.30;1767596;81;21009;-67
2022/03/26 11:31:24;;;;;;;9.55;5.97;;;;;;;19.20;24.08;96444.85;1768527;81;21004;-67
2022/03/26 11:34:06;;;;;;;12.37;6.58;;;;;;;19.43;21.86;96431.03;1766761;81;21072;-67